createdAt,value
2023-02-06T00:01:50.525Z,103803.47
2023-02-06T00:04:16.361Z,103804.53
2023-02-06T00:06:42.250Z,103801.78
2023-02-06T00:09:08.210Z,103796.25
2023-02-06T00:11:34.011Z,103803.66
2023-02-06T00:13:59.682Z,103799.88
2023-02-06T00:16:27.943Z,103802.41
2023-02-06T00:18:54.431Z,103788.00
2023-02-06T00:21:23.634Z,103797.97
2023-02-06T00:23:50.205Z,103788.00
2023-02-06T00:26:16.194Z,103771.25
2023-02-06T00:28:41.862Z,103776.97
2023-02-06T00:31:08.177Z,103773.34
2023-02-06T00:33:34.237Z,103776.97
2023-02-06T00:36:00.201Z,103768.72
2023-02-06T00:38:25.842Z,103771.47
2023-02-06T00:40:51.478Z,103773.16
2023-02-06T00:43:17.205Z,103767.81
2023-02-06T00:45:42.885Z,103764.22
2023-02-06T00:48:09.000Z,103764.22
2023-02-06T00:50:35.045Z,103767.81
2023-02-06T00:53:00.735Z,103766.81
2023-02-06T00:55:26.486Z,103755.97
2023-02-06T00:57:52.118Z,103758.72
2023-02-06T01:00:17.880Z,103753.03
2023-02-06T01:02:43.559Z,103759.56
2023-02-06T01:05:09.383Z,103754.94
2023-02-06T01:07:38.521Z,103744.94
2023-02-06T01:10:04.541Z,103743.03
2023-02-06T01:12:30.182Z,103747.69
2023-02-06T01:14:55.830Z,103748.53
2023-02-06T01:17:21.468Z,103750.44
2023-02-06T01:19:47.111Z,103755.97
2023-02-06T01:22:12.748Z,103755.78
2023-02-06T01:24:38.388Z,103758.72
2023-02-06T01:27:04.030Z,103766.81
2023-02-06T01:29:29.685Z,103753.22
2023-02-06T01:31:55.370Z,103760.44
2023-02-06T01:34:21.041Z,103762.31
2023-02-06T01:36:46.677Z,103763.19
2023-02-06T01:39:12.319Z,103762.31
2023-02-06T01:41:38.139Z,103767.81
2023-02-06T01:46:44.993Z,103776.09
2023-02-06T01:49:16.589Z,103785.25
2023-02-06T01:51:42.643Z,103786.09
2023-02-06T01:54:08.782Z,103773.34
2023-02-06T01:56:39.551Z,103771.47
2023-02-06T01:59:05.211Z,103768.88
2023-02-06T02:01:31.650Z,103773.34
2023-02-06T02:04:03.438Z,103767.81
2023-02-06T02:06:29.440Z,103768.72
2023-02-06T02:08:58.182Z,103770.59
2023-02-06T02:11:28.765Z,103760.44
2023-02-06T02:13:54.983Z,103761.47
2023-02-06T02:16:48.905Z,103753.22
2023-02-06T02:22:43.270Z,103751.31
2023-02-06T02:25:39.395Z,103754.06
2023-02-06T02:28:32.421Z,103756.81
2023-02-06T02:31:22.037Z,103746.84
2023-02-06T02:34:27.528Z,103744.09
2023-02-06T02:37:00.179Z,103747.69
2023-02-06T02:42:14.834Z,103747.31
2023-02-06T02:45:17.969Z,103758.31
2023-02-06T02:48:04.507Z,103751.31
2023-02-06T02:50:30.500Z,103755.97
2023-02-06T02:52:57.749Z,103763.19
2023-02-06T02:55:23.443Z,103760.44
2023-02-06T02:57:51.405Z,103762.31
2023-02-06T03:00:18.132Z,103763.19
2023-02-06T03:02:45.131Z,103764.22
2023-02-06T03:05:12.944Z,103758.72
2023-02-06T03:07:52.953Z,103764.22
2023-02-06T03:10:32.983Z,103756.81
2023-02-06T03:13:07.386Z,103750.44
2023-02-06T03:15:45.859Z,103744.94
2023-02-06T03:18:18.194Z,103758.72
2023-02-06T03:20:45.058Z,103757.88
2023-02-06T03:23:19.596Z,103759.56
2023-02-06T03:25:46.628Z,103756.81
2023-02-06T03:28:17.074Z,103759.56
2023-02-06T03:30:45.455Z,103757.88
2023-02-06T03:33:13.127Z,103759.78
2023-02-06T03:35:39.290Z,103754.25
2023-02-06T03:38:06.290Z,103746.84
2023-02-06T03:40:32.131Z,103745.78
2023-02-06T03:43:01.618Z,103754.94
2023-02-06T03:45:30.401Z,103748.53
2023-02-06T03:48:01.433Z,103753.22
2023-02-06T03:50:27.539Z,103754.06
2023-02-06T03:52:55.041Z,103752.34
2023-02-06T03:55:22.607Z,103761.47
2023-02-06T03:57:55.685Z,103767.81
2023-02-06T04:00:22.044Z,103762.31
2023-02-06T04:02:48.317Z,103755.13
2023-02-06T04:05:16.082Z,103755.97
2023-02-06T04:07:41.766Z,103756.81
2023-02-06T04:10:07.622Z,103758.72
2023-02-06T04:12:33.258Z,103748.53
2023-02-06T04:14:58.894Z,103744.09
2023-02-06T04:17:40.983Z,103744.09
2023-02-06T04:20:10.431Z,103755.13
2023-02-06T04:22:36.096Z,103765.06
2023-02-06T04:25:01.739Z,103760.63
2023-02-06T04:27:27.412Z,103759.56
2023-02-06T04:29:53.061Z,103765.06
2023-02-06T04:32:18.705Z,103758.72
2023-02-06T04:34:44.366Z,103760.63
2023-02-06T04:37:11.662Z,103748.75
2023-02-06T04:39:38.165Z,103764.22
2023-02-06T04:42:04.541Z,103766.13
2023-02-06T04:44:31.538Z,103777.16
2023-02-06T04:46:57.316Z,103774.41
2023-02-06T04:49:23.027Z,103775.25
2023-02-06T04:51:48.698Z,103784.56
2023-02-06T04:54:16.443Z,103788.16
2023-02-06T04:56:43.436Z,103783.50
2023-02-06T04:59:09.153Z,103793.69
2023-02-06T05:01:34.890Z,103788.16
2023-02-06T05:04:00.557Z,103790.94
2023-02-06T05:06:27.383Z,103790.94
2023-02-06T05:08:53.035Z,103790.94
2023-02-06T05:11:18.690Z,103788.16
2023-02-06T05:13:44.334Z,103791.78
2023-02-06T05:16:12.414Z,103793.69
2023-02-06T05:18:38.956Z,103789.03
2023-02-06T05:21:04.823Z,103786.47
2023-02-06T05:23:31.611Z,103786.25
2023-02-06T05:25:58.331Z,103788.16
2023-02-06T05:28:24.251Z,103784.56
2023-02-06T05:30:50.045Z,103778.00
2023-02-06T05:33:15.757Z,103778.00
2023-02-06T05:35:41.405Z,103774.41
2023-02-06T05:38:07.034Z,103775.25
2023-02-06T05:40:32.681Z,103768.88
2023-02-06T05:42:58.382Z,103768.03
2023-02-06T05:45:24.577Z,103770.78
2023-02-06T05:47:50.415Z,103770.78
2023-02-06T05:50:16.228Z,103764.22
2023-02-06T05:52:41.932Z,103757.03
2023-02-06T05:55:08.257Z,103760.63
2023-02-06T05:57:34.310Z,103760.84
2023-02-06T05:59:59.984Z,103758.94
2023-02-06T06:02:25.657Z,103754.25
2023-02-06T06:04:51.366Z,103757.03
2023-02-06T06:07:17.098Z,103756.19
2023-02-06T06:09:42.753Z,103757.03
2023-02-06T06:12:08.649Z,103750.66
2023-02-06T06:14:34.384Z,103757.88
2023-02-06T06:17:00.343Z,103757.03
2023-02-06T06:19:25.994Z,103746.00
2023-02-06T06:21:51.766Z,103744.09
2023-02-06T06:24:17.463Z,103742.41
2023-02-06T06:26:43.155Z,103754.25
2023-02-06T06:29:08.795Z,103748.75
2023-02-06T06:31:34.536Z,103750.66
2023-02-06T06:34:00.191Z,103754.25
2023-02-06T06:36:25.853Z,103755.13
2023-02-06T06:38:51.597Z,103747.91
2023-02-06T06:41:17.254Z,103754.25
2023-02-06T06:43:42.907Z,103749.81
2023-02-06T06:46:08.808Z,103748.97
2023-02-06T06:48:36.248Z,103752.56
2023-02-06T06:51:01.932Z,103754.25
2023-02-06T06:53:27.782Z,103755.97
2023-02-06T06:55:53.414Z,103760.63
2023-02-06T06:58:19.772Z,103757.88
2023-02-06T07:00:45.452Z,103751.50
2023-02-06T07:03:11.656Z,103755.13
2023-02-06T07:05:37.876Z,103759.78
2023-02-06T07:08:03.887Z,103763.38
2023-02-06T07:10:29.582Z,103757.03
2023-02-06T07:12:55.869Z,103749.59
2023-02-06T07:15:22.645Z,103759.78
2023-02-06T07:17:48.300Z,103754.25
2023-02-06T07:20:13.938Z,103752.34
2023-02-06T07:22:39.736Z,103748.75
2023-02-06T07:25:05.794Z,103753.41
2023-02-06T07:27:31.559Z,103754.25
2023-02-06T07:29:57.221Z,103753.41
2023-02-06T07:32:22.867Z,103748.75
2023-02-06T07:34:48.514Z,103753.41
2023-02-06T07:37:14.163Z,103746.00
2023-02-06T07:39:39.813Z,103747.69
2023-02-06T07:42:05.749Z,103740.56
2023-02-06T07:44:31.416Z,103743.72
2023-02-06T07:46:57.905Z,103751.38
2023-02-06T07:49:24.159Z,103750.72
2023-02-06T07:51:49.801Z,103749.00
2023-02-06T07:54:15.575Z,103749.00
2023-02-06T07:56:41.696Z,103750.72
2023-02-06T07:59:09.302Z,103753.66
2023-02-06T08:01:35.522Z,103751.75
2023-02-06T08:04:01.378Z,103747.97
2023-02-06T08:06:27.213Z,103753.28
2023-02-06T08:08:54.950Z,103744.16
2023-02-06T08:11:21.158Z,103748.59
2023-02-06T08:13:47.428Z,103757.72
2023-02-06T08:16:16.348Z,103748.59
2023-02-06T08:18:42.236Z,103749.47
2023-02-06T08:21:11.235Z,103748.66
2023-02-06T08:23:37.506Z,103757.78
2023-02-06T08:26:08.630Z,103748.47
2023-02-06T08:28:35.037Z,103749.69
2023-02-06T08:31:02.251Z,103746.09
2023-02-06T08:33:27.916Z,103746.59
2023-02-06T08:35:53.572Z,103755.44
2023-02-06T08:38:19.481Z,103757.34
2023-02-06T08:40:45.131Z,103758.63
2023-02-06T08:43:10.886Z,103763.94
2023-02-06T08:45:36.823Z,103753.13
2023-02-06T08:48:02.758Z,103744.84
2023-02-06T08:50:28.410Z,103741.03
2023-02-06T08:52:54.068Z,103738.28
2023-02-06T08:55:20.107Z,103738.28
2023-02-06T08:57:50.840Z,103749.09
2023-02-06T09:00:16.812Z,103752.69
2023-02-06T09:02:42.485Z,103744.44
2023-02-06T09:05:08.186Z,103751.84
2023-02-06T09:07:33.859Z,103759.94
2023-02-06T09:09:59.514Z,103748.91
2023-02-06T09:12:25.235Z,103759.94
2023-02-06T09:14:50.886Z,103759.09
2023-02-06T09:17:16.620Z,103756.34
2023-02-06T09:19:42.265Z,103757.81
2023-02-06T09:22:07.898Z,103762.47
2023-02-06T09:24:33.560Z,103752.31
2023-02-06T09:27:00.772Z,103761.41
2023-02-06T09:29:28.425Z,103752.31
2023-02-06T09:31:54.995Z,103752.97
2023-02-06T09:34:20.618Z,103754.88
2023-02-06T09:36:46.266Z,103742.13
2023-02-06T09:39:11.932Z,103742.13
2023-02-06T09:41:42.743Z,103759.31
2023-02-06T09:46:47.602Z,103759.13
2023-02-06T09:49:17.667Z,103766.31
2023-02-06T09:52:12.378Z,103753.59
2023-02-06T09:54:45.664Z,103758.25
2023-02-06T09:57:51.134Z,103762.09
2023-02-06T10:00:40.742Z,103772.25
2023-02-06T10:03:33.929Z,103773.09
2023-02-06T10:06:27.466Z,103772.44
2023-02-06T10:14:22.867Z,103768.59
2023-02-06T10:16:53.850Z,103776.63
2023-02-06T10:19:42.857Z,103785.47
2023-02-06T10:22:14.115Z,103792.25
2023-02-06T10:24:49.516Z,103781.41
2023-02-06T10:27:15.170Z,103775.03
2023-02-06T10:29:42.310Z,103774.19
2023-02-06T10:32:19.598Z,103778.66
2023-02-06T10:35:09.384Z,103765.72
2023-02-06T10:38:14.840Z,103793.28
2023-02-06T10:40:48.958Z,103771.31
2023-02-06T10:43:54.474Z,103765.13
2023-02-06T10:46:32.906Z,103765.31
2023-02-06T10:49:18.370Z,103763.41
2023-02-06T10:51:48.264Z,103751.75
2023-02-06T10:54:18.652Z,103764.47
2023-02-06T10:56:45.978Z,103749.84
2023-02-06T10:59:21.811Z,103743.47
2023-02-06T11:01:49.668Z,103737.75
2023-02-06T11:04:36.858Z,103740.50
2023-02-06T11:07:07.604Z,103738.59
2023-02-06T11:09:33.267Z,103733.97
2023-02-06T11:11:59.385Z,103738.44
2023-02-06T11:14:32.369Z,103732.06
2023-02-06T11:16:59.217Z,103732.06
2023-02-06T11:19:29.510Z,103738.44
2023-02-06T11:22:08.355Z,103736.53
2023-02-06T11:24:35.120Z,103723.59
2023-02-06T11:27:03.835Z,103720.00
2023-02-06T11:29:36.177Z,103716.19
2023-02-06T11:32:03.860Z,103717.03
2023-02-06T11:34:33.647Z,103712.38
2023-02-06T11:37:01.912Z,103711.53
2023-02-06T11:39:30.813Z,103707.69
2023-02-06T11:42:00.294Z,103703.03
2023-02-06T11:44:28.572Z,103706.66
2023-02-06T11:46:54.254Z,103687.56
2023-02-06T11:49:28.200Z,103692.00
2023-02-06T11:51:58.926Z,103687.38
2023-02-06T11:54:28.391Z,103683.75
2023-02-06T11:57:02.471Z,103678.44
2023-02-06T11:59:29.772Z,103676.75
2023-02-06T12:01:56.855Z,103680.59
2023-02-06T12:04:25.568Z,103674.22
2023-02-06T12:06:59.670Z,103677.19
2023-02-06T12:09:25.803Z,103682.72
2023-02-06T12:11:58.245Z,103674.44
2023-02-06T12:14:47.381Z,103668.94
2023-02-06T12:17:23.578Z,103657.91
2023-02-06T12:19:54.889Z,103664.25
2023-02-06T12:22:22.622Z,103646.03
2023-02-06T12:24:51.494Z,103644.97
2023-02-06T12:27:24.823Z,103646.66
2023-02-06T12:30:03.000Z,103646.66
2023-02-06T12:32:34.287Z,103654.72
2023-02-06T12:35:20.893Z,103662.97
2023-02-06T12:37:52.776Z,103661.28
2023-02-06T12:40:48.104Z,103654.72
2023-02-06T12:43:15.246Z,103653.88
2023-02-06T12:46:01.786Z,103651.09
2023-02-06T12:48:39.255Z,103647.28
2023-02-06T12:51:11.909Z,103653.69
2023-02-06T12:53:51.533Z,103654.94
2023-02-06T12:56:27.404Z,103649.84
2023-02-06T12:59:05.690Z,103644.13
2023-02-06T13:01:53.931Z,103642.22
2023-02-06T13:04:22.793Z,103636.91
2023-02-06T13:06:58.467Z,103637.75
2023-02-06T13:09:28.963Z,103632.25
2023-02-06T13:12:07.208Z,103621.22
2023-02-06T13:14:33.972Z,103629.28
2023-02-06T13:17:19.188Z,103612.75
2023-02-06T13:22:23.157Z,103612.56
2023-02-06T13:24:49.974Z,103609.78
2023-02-06T13:27:16.966Z,103602.59
2023-02-06T13:29:45.236Z,103597.91
2023-02-06T13:34:53.018Z,103608.09
2023-02-06T13:37:20.693Z,103605.97
2023-02-06T13:39:47.927Z,103604.91
2023-02-06T13:42:34.866Z,103605.97
2023-02-06T13:45:03.304Z,103607.88
2023-02-06T13:47:43.645Z,103598.75
2023-02-06T13:53:06.116Z,103594.06
2023-02-06T13:58:27.634Z,103599.63
2023-02-06T14:00:54.000Z,103598.75
2023-02-06T14:03:37.420Z,103589.22
2023-02-06T14:08:52.014Z,103575.13
2023-02-06T14:11:38.053Z,103575.84
2023-02-06T14:14:34.791Z,103576.06
2023-02-06T14:17:18.068Z,103586.91
2023-02-06T14:19:52.660Z,103590.28
2023-02-06T14:22:32.093Z,103589.22
2023-02-06T14:25:37.918Z,103590.94
2023-02-06T14:28:21.535Z,103587.31
2023-02-06T14:33:52.784Z,103586.03
2023-02-06T14:36:45.797Z,103600.69
2023-02-06T14:39:33.622Z,103599.84
2023-02-06T14:42:10.262Z,103599.84
2023-02-06T14:44:35.946Z,103587.97
2023-02-06T14:47:01.629Z,103597.06
2023-02-06T14:49:33.006Z,103593.47
2023-02-06T14:51:59.459Z,103591.56
2023-02-06T14:54:30.999Z,103579.69
2023-02-06T14:56:58.803Z,103592.22
2023-02-06T14:59:24.474Z,103586.91
2023-02-06T15:01:52.489Z,103587.75
2023-02-06T15:04:21.833Z,103583.94
2023-02-06T15:06:54.839Z,103585.63
2023-02-06T15:09:27.977Z,103581.19
2023-02-06T15:11:56.153Z,103590.31
2023-02-06T15:14:26.800Z,103598.59
2023-02-06T15:16:52.762Z,103597.50
2023-02-06T15:19:21.243Z,103594.97
2023-02-06T15:21:47.168Z,103590.31
2023-02-06T15:29:32.016Z,103592.22
2023-02-06T15:32:02.804Z,103585.81
2023-02-06T15:34:28.564Z,103586.91
2023-02-06T15:36:54.208Z,103590.50
2023-02-06T15:39:20.186Z,103582.44
2023-02-06T15:41:49.059Z,103579.69
2023-02-06T15:44:25.838Z,103583.28
2023-02-06T15:46:52.340Z,103587.97
2023-02-06T15:49:25.492Z,103568.66
2023-02-06T15:51:54.077Z,103573.31
2023-02-06T15:54:22.337Z,103571.41
2023-02-06T15:57:01.598Z,103565.88
2023-02-06T15:59:27.873Z,103562.81
2023-02-06T16:01:56.714Z,103565.22
2023-02-06T16:04:28.457Z,103566.50
2023-02-06T16:07:06.449Z,103562.50
2023-02-06T16:09:39.350Z,103566.75
2023-02-06T16:12:05.319Z,103564.84
2023-02-06T16:14:35.127Z,103569.28
2023-02-06T16:17:21.657Z,103562.72
2023-02-06T16:20:01.673Z,103560.78
2023-02-06T16:22:32.888Z,103559.72
2023-02-06T16:25:21.372Z,103555.09
2023-02-06T16:27:47.711Z,103552.34
2023-02-06T16:30:31.817Z,103560.59
2023-02-06T16:32:59.033Z,103561.22
2023-02-06T16:35:25.440Z,103556.56
2023-02-06T16:37:52.701Z,103553.81
2023-02-06T16:40:18.589Z,103544.69
2023-02-06T16:42:46.631Z,103549.13
2023-02-06T16:45:27.359Z,103550.22
2023-02-06T16:47:53.717Z,103548.28
2023-02-06T16:50:20.895Z,103551.06
2023-02-06T16:52:49.862Z,103549.97
2023-02-06T16:55:22.071Z,103538.13
2023-02-06T16:57:51.558Z,103538.97
2023-02-06T17:00:23.556Z,103531.56
2023-02-06T17:02:51.168Z,103534.50
2023-02-06T17:05:18.238Z,103533.44
2023-02-06T17:07:44.857Z,103535.34
2023-02-06T17:10:13.030Z,103536.19
2023-02-06T17:12:38.831Z,103538.13
2023-02-06T17:15:04.840Z,103540.03
2023-02-06T17:17:30.483Z,103544.69
2023-02-06T17:19:56.459Z,103543.63
2023-02-06T17:22:22.164Z,103553.81
2023-02-06T17:24:48.176Z,103552.97
2023-02-06T17:27:17.423Z,103545.75
2023-02-06T17:29:43.889Z,103545.75
2023-02-06T17:32:10.758Z,103547.44
2023-02-06T17:34:36.702Z,103551.28
2023-02-06T17:37:02.497Z,103546.59
2023-02-06T17:39:28.200Z,103543.19
2023-02-06T17:41:53.853Z,103546.81
2023-02-06T17:44:19.494Z,103537.50
2023-02-06T17:46:46.995Z,103540.44
2023-02-06T17:49:13.301Z,103543.19
2023-02-06T17:51:40.365Z,103547.84
2023-02-06T17:54:06.405Z,103553.38
2023-02-06T17:56:32.901Z,103553.38
2023-02-06T17:58:58.545Z,103550.63
2023-02-06T18:01:24.945Z,103552.53
2023-02-06T18:03:51.287Z,103548.06
2023-02-06T18:06:18.554Z,103546.16
2023-02-06T18:08:44.318Z,103552.53
2023-02-06T18:11:12.804Z,103558.03
2023-02-06T18:13:39.654Z,103547.22
2023-02-06T18:16:06.125Z,103548.91
2023-02-06T18:18:32.314Z,103545.31
2023-02-06T18:20:58.677Z,103545.31
2023-02-06T18:23:24.924Z,103540.88
2023-02-06T18:25:50.865Z,103548.28
2023-02-06T18:28:17.267Z,103550.00
2023-02-06T18:30:43.791Z,103556.34
2023-02-06T18:33:11.866Z,103550.00
2023-02-06T18:35:38.869Z,103546.38
2023-02-06T18:38:08.722Z,103544.69
2023-02-06T18:40:37.239Z,103540.03
2023-02-06T18:43:04.032Z,103539.19
2023-02-06T18:45:33.473Z,103537.47
2023-02-06T18:48:01.048Z,103535.53
2023-02-06T18:50:27.020Z,103539.38
2023-02-06T18:52:52.788Z,103541.94
2023-02-06T18:55:18.806Z,103540.22
2023-02-06T18:57:45.509Z,103552.09
2023-02-06T19:00:12.935Z,103548.50
2023-02-06T19:02:38.587Z,103550.41
2023-02-06T19:05:04.264Z,103558.66
2023-02-06T19:07:29.957Z,103550.41
2023-02-06T19:09:58.168Z,103557.59
2023-02-06T19:12:27.211Z,103565.03
2023-02-06T19:14:53.344Z,103556.75
2023-02-06T19:17:18.995Z,103555.91
2023-02-06T19:19:44.640Z,103551.47
2023-02-06T19:22:10.408Z,103553.16
2023-02-06T19:24:36.059Z,103563.34
2023-02-06T19:27:01.740Z,103563.34
2023-02-06T19:29:35.645Z,103559.72
2023-02-06T19:32:06.705Z,103560.56
2023-02-06T19:34:35.239Z,103560.56
2023-02-06T19:37:01.328Z,103556.13
2023-02-06T19:39:29.121Z,103561.66
2023-02-06T19:41:54.796Z,103566.94
2023-02-06T19:44:20.435Z,103562.50
2023-02-06T19:46:46.081Z,103560.56
2023-02-06T19:49:11.927Z,103557.81
2023-02-06T19:51:40.267Z,103557.81
2023-02-06T19:54:06.726Z,103564.41
2023-02-06T19:56:38.363Z,103568.00
2023-02-06T19:59:12.794Z,103566.09
2023-02-06T20:01:38.479Z,103569.91
2023-02-06T20:04:05.003Z,103574.59
2023-02-06T20:06:34.031Z,103580.94
2023-02-06T20:09:00.913Z,103580.09
2023-02-06T20:11:27.027Z,103572.00
2023-02-06T20:13:54.657Z,103571.81
2023-02-06T20:16:24.818Z,103561.66
2023-02-06T20:18:51.038Z,103562.72
2023-02-06T20:21:20.056Z,103567.16
2023-02-06T20:23:45.933Z,103559.72
2023-02-06T20:26:11.811Z,103556.13
2023-02-06T20:28:37.468Z,103554.44
